Time;durP1;ratioP1;P1;durP2;ratioP2;P2;SDS_P1;SDS_P2;PMS_P1;PMS_P2;Temp;Humidity;BMP_temperature;BMP_pressure;BME280_temperature;BME280_humidity;BME280_pressure;Samples;Min_cycle;Max_cycle;Signal;HPM_P1;HPM_P2
2021/07/28 00:01:21;;;;;;;;;;;;;;;16.14;66.99;101463.32;1936748;74;20110;-60
2021/07/28 00:03:49;;;;;;;;;;;;;;;16.06;67.86;101462.83;1936702;73;20147;-60
2021/07/28 00:06:19;;;;;;;;;;;;;;;15.97;68.32;101457.50;1936703;74;20143;-60
2021/07/28 00:08:47;;;;;;;;;;;;;;;15.96;68.58;101454.47;1936738;74;20150;-60
2021/07/28 00:11:15;;;;;;;;;;;;;;;15.91;68.82;101449.86;1936743;74;20147;-60
2021/07/28 00:13:44;;;;;;;;;;;;;;;15.88;68.62;101453.98;1936706;74;20382;-60
2021/07/28 00:16:14;;;;;;;;;;;;;;;15.87;68.29;101454.94;1936749;73;20381;-60
2021/07/28 00:18:47;;;;;;;;;;;;;;;15.85;68.05;101464.30;1936059;74;20112;-60
2021/07/28 00:23:57;;;;;;;;;;;;;;;15.83;67.84;101463.05;1936751;74;20127;-62
2021/07/28 00:26:25;;;;;;;;;;;;;;;15.80;67.90;101454.37;1936888;74;20159;-62
2021/07/28 00:28:53;;;;;;;;;;;;;;;15.78;68.75;101457.09;1936686;74;20138;-63
2021/07/28 00:31:21;;;;;;;;;;;;;;;15.72;70.00;101456.05;1936691;74;20199;-62
2021/07/28 00:33:48;;;;;;;;;;;;;;;15.66;70.48;101451.05;1936704;73;20146;-62
2021/07/28 00:36:16;;;;;;;;;;;;;;;15.64;71.39;101449.80;1936682;74;20096;-62
2021/07/28 00:38:44;;;;;;;;;;;;;;;15.65;70.84;101454.63;1936692;74;20116;-62
2021/07/28 00:41:15;;;;;;;;;;;;;;;15.65;70.61;101451.97;1936748;74;20100;-62
2021/07/28 00:43:43;;;;;;;;;;;;;;;15.62;70.41;101454.77;1936645;73;20116;-62
2021/07/28 00:46:11;;;;;;;;;;;;;;;15.60;69.95;101459.30;1933203;74;20120;-62
2021/07/28 00:48:39;;;;;;;;;;;;;;;15.58;70.42;101454.53;1928574;74;20100;-62
2021/07/28 00:51:06;;;;;;;;;;;;;;;15.52;71.43;101456.16;1928771;74;20120;-62
2021/07/28 00:53:35;;;;;;;;;;;;;;;15.50;71.01;101452.73;1928566;74;20146;-62
2021/07/28 00:56:03;;;;;;;;;;;;;;;15.48;70.56;101456.78;1928706;74;20112;-62
2021/07/28 00:58:31;;;;;;;;;;;;;;;15.47;70.24;101458.17;1928618;74;20120;-62
2021/07/28 01:00:59;;;;;;;;;;;;;;;15.46;70.25;101460.45;1928616;74;20155;-62
2021/07/28 01:03:27;;;;;;;;;;;;;;;15.46;70.20;101461.78;1928586;74;20105;-62
2021/07/28 01:05:57;;;;;;;;;;;;;;;15.43;70.26;101464.09;1928592;74;20142;-62
2021/07/28 01:08:25;;;;;;;;;;;;;;;15.39;70.58;101461.20;1928626;74;20171;-62
2021/07/28 01:10:54;;;;;;;;;;;;;;;15.37;71.07;101455.96;1928525;74;20183;-62
2021/07/28 01:13:30;;;;;;;;;;;;;;;15.34;71.05;101458.75;1928590;74;20116;-62
2021/07/28 01:16:05;;;;;;;;;;;;;;;15.34;70.70;101452.59;1928744;74;20105;-62
2021/07/28 01:18:34;;;;;;;;;;;;;;;15.35;70.37;101455.66;1928625;74;20143;-62
2021/07/28 01:21:03;;;;;;;;;;;;;;;15.32;70.32;101458.44;1928608;74;20409;-62
2021/07/28 01:23:31;;;;;;;;;;;;;;;15.27;70.45;101457.34;1928720;74;20372;-62
2021/07/28 01:26:03;;;;;;;;;;;;;;;15.21;71.57;101460.27;1928728;74;20100;-62
2021/07/28 01:28:32;;;;;;;;;;;;;;;15.19;71.63;101464.79;1928700;74;20128;-62
2021/07/28 01:31:01;;;;;;;;;;;;;;;15.17;71.28;101464.86;1928679;74;20155;-62
2021/07/28 01:33:29;;;;;;;;;;;;;;;15.13;71.54;101467.73;1928636;74;20104;-61
2021/07/28 01:35:58;;;;;;;;;;;;;;;15.08;71.79;101468.41;1928599;74;20366;-62
2021/07/28 01:38:26;;;;;;;;;;;;;;;14.99;71.96;101474.52;1928711;74;20433;-62
2021/07/28 01:40:55;;;;;;;;;;;;;;;14.98;71.84;101475.47;1928707;74;20150;-62
2021/07/28 01:43:23;;;;;;;;;;;;;;;14.98;71.50;101483.42;1928690;74;20402;-62
2021/07/28 01:45:51;;;;;;;;;;;;;;;14.98;71.39;101477.27;1929171;74;20112;-62
2021/07/28 01:48:19;;;;;;;;;;;;;;;14.98;71.53;101475.94;1940617;74;20123;-62
2021/07/28 01:50:47;;;;;;;;;;;;;;;14.96;71.78;101475.16;1940668;74;20116;-62
2021/07/28 01:53:15;;;;;;;;;;;;;;;14.91;72.36;101476.67;1940696;74;20421;-62
2021/07/28 01:55:44;;;;;;;;;;;;;;;14.86;72.62;101478.66;1940647;74;20104;-61
2021/07/28 01:58:12;;;;;;;;;;;;;;;14.81;72.88;101485.95;1940694;74;20120;-61
2021/07/28 02:00:41;;;;;;;;;;;;;;;14.80;73.48;101476.30;1940553;74;20116;-62
2021/07/28 02:03:08;;;;;;;;;;;;;;;14.77;73.21;101480.41;1940677;74;20099;-62
2021/07/28 02:05:37;;;;;;;;;;;;;;;14.76;73.20;101481.35;1940702;74;20159;-62
2021/07/28 02:08:07;;;;;;;;;;;;;;;14.73;73.34;101486.31;1940659;74;20138;-62
2021/07/28 02:10:39;;;;;;;;;;;;;;;14.72;73.21;101489.91;1940661;74;20365;-62
2021/07/28 02:13:07;;;;;;;;;;;;;;;14.76;73.38;101495.94;1940680;74;20382;-63
2021/07/28 02:15:40;;;;;;;;;;;;;;;14.79;72.95;101506.38;1940610;73;20167;-62
2021/07/28 02:18:05;;;;;;;;;;;;;;;14.81;72.62;101500.54;1939289;74;20115;-62
2021/07/28 02:20:33;;;;;;;;;;;;;;;14.82;72.35;101508.44;1940816;74;20119;-62
2021/07/28 02:23:02;;;;;;;;;;;;;;;14.83;72.16;101505.34;1940694;74;20112;-62
2021/07/28 02:25:30;;;;;;;;;;;;;;;14.84;72.11;101512.34;1940682;74;20107;-62
2021/07/28 02:27:58;;;;;;;;;;;;;;;14.84;72.10;101501.73;1940790;74;20150;-62
2021/07/28 02:30:26;;;;;;;;;;;;;;;14.83;72.43;101501.36;1940676;74;20249;-62
2021/07/28 02:32:54;;;;;;;;;;;;;;;14.81;72.70;101507.17;1940667;74;20386;-62
2021/07/28 02:35:22;;;;;;;;;;;;;;;14.84;72.74;101505.72;1940619;74;20146;-62
2021/07/28 02:37:49;;;;;;;;;;;;;;;14.91;72.99;101505.84;1940679;74;20142;-62
2021/07/28 02:40:19;;;;;;;;;;;;;;;15.04;72.95;101501.70;1940661;74;20103;-63
2021/07/28 02:42:47;;;;;;;;;;;;;;;15.16;72.83;101502.95;1940688;74;20186;-62
2021/07/28 02:45:14;;;;;;;;;;;;;;;15.30;72.78;101514.23;1940657;74;20115;-61
2021/07/28 02:47:42;;;;;;;;;;;;;;;15.43;73.00;101511.38;1938391;73;20116;-60
2021/07/28 02:50:11;;;;;;;;;;;;;;;15.50;73.51;101507.13;1936750;74;20119;-60
2021/07/28 02:52:39;;;;;;;;;;;;;;;15.56;73.42;101510.34;1936748;74;20116;-60
2021/07/28 02:55:07;;;;;;;;;;;;;;;15.71;73.29;101509.22;1936636;74;20245;-60
2021/07/28 02:57:36;;;;;;;;;;;;;;;16.01;73.43;101509.56;1936787;74;20159;-60
2021/07/28 03:00:04;;;;;;;;;;;;;;;16.19;73.18;101509.97;1936789;74;20116;-60
2021/07/28 03:02:32;;;;;;;;;;;;;;;16.48;73.00;101517.39;1936724;74;20111;-60
2021/07/28 03:05:00;;;;;;;;;;;;;;;16.78;72.59;101518.91;1936870;74;20112;-60
2021/07/28 03:07:27;;;;;;;;;;;;;;;17.03;72.35;101513.66;1936578;74;20112;-62
2021/07/28 03:09:55;;;;;;;;;;;;;;;17.28;72.10;101514.50;1936748;74;20100;-61
2021/07/28 03:12:23;;;;;;;;;;;;;;;17.47;71.95;101515.69;1936675;74;20136;-61
2021/07/28 03:14:51;;;;;;;;;;;;;;;17.67;71.84;101508.77;1936718;74;20116;-61
2021/07/28 03:17:19;;;;;;;;;;;;;;;17.87;71.70;101516.99;1936697;74;20108;-61
2021/07/28 03:19:47;;;;;;;;;;;;;;;17.94;71.80;101509.48;1936737;74;20155;-61
2021/07/28 03:22:15;;;;;;;;;;;;;;;18.00;72.09;101509.60;1936841;74;20225;-61
2021/07/28 03:24:43;;;;;;;;;;;;;;;18.11;72.22;101504.50;1936751;74;20142;-61
2021/07/28 03:27:10;;;;;;;;;;;;;;;18.25;72.29;101510.37;1936786;74;20112;-61
2021/07/28 03:29:38;;;;;;;;;;;;;;;18.31;72.36;101510.88;1936735;74;20120;-61
2021/07/28 03:32:06;;;;;;;;;;;;;;;18.43;72.50;101505.27;1936731;74;20138;-61
2021/07/28 03:34:36;;;;;;;;;;;;;;;18.55;72.52;101508.14;1936651;74;20105;-61
2021/07/28 03:37:04;;;;;;;;;;;;;;;18.61;72.41;101511.31;1936757;74;20112;-60
2021/07/28 03:39:31;;;;;;;;;;;;;;;18.68;72.24;101503.78;1936749;74;20146;-61
2021/07/28 03:41:59;;;;;;;;;;;;;;;18.73;71.96;101497.69;1936732;74;20156;-60
2021/07/28 03:44:27;;;;;;;;;;;;;;;18.83;71.93;101500.22;1936719;74;20167;-60
2021/07/28 03:46:55;;;;;;;;;;;;;;;18.95;71.72;101503.08;1936661;74;20111;-62
2021/07/28 03:49:23;;;;;;;;;;;;;;;19.02;71.51;101501.74;1936664;74;20191;-62
2021/07/28 03:51:51;;;;;;;;;;;;;;;19.12;71.33;101501.53;1936748;74;20107;-61
2021/07/28 03:54:19;;;;;;;;;;;;;;;19.20;71.04;101504.59;1936723;74;20108;-61
2021/07/28 03:56:46;;;;;;;;;;;;;;;19.29;70.80;101505.34;1936690;74;20103;-61
2021/07/28 03:59:14;;;;;;;;;;;;;;;19.39;70.52;101510.95;1936733;74;20138;-62
2021/07/28 04:01:42;;;;;;;;;;;;;;;19.59;70.10;101519.02;1936631;74;20100;-62
2021/07/28 04:04:10;;;;;;;;;;;;;;;19.71;69.29;101517.34;1936750;74;20150;-62
2021/07/28 04:06:38;;;;;;;;;;;;;;;19.79;69.01;101519.55;1936701;74;20159;-61
2021/07/28 04:09:06;;;;;;;;;;;;;;;19.96;68.68;101516.63;1936768;74;20115;-61
2021/07/28 04:11:34;;;;;;;;;;;;;;;20.14;68.30;101517.69;1936746;74;20175;-63
2021/07/28 04:14:02;;;;;;;;;;;;;;;20.31;67.53;101522.77;1936715;74;20116;-65
2021/07/28 04:16:29;;;;;;;;;;;;;;;20.48;67.19;101525.63;1936616;74;20131;-61
2021/07/28 04:18:57;;;;;;;;;;;;;;;20.75;66.86;101529.59;1936763;74;20260;-61
2021/07/28 04:21:26;;;;;;;;;;;;;;;20.97;66.02;101530.75;1936720;74;20112;-61
2021/07/28 04:23:53;;;;;;;;;;;;;;;21.21;65.62;101522.82;1936698;74;20104;-61
2021/07/28 04:26:21;;;;;;;;;;;;;;;21.50;65.40;101524.73;1936726;74;20112;-61
2021/07/28 04:28:50;;;;;;;;;;;;;;;21.73;64.80;101522.22;1936614;74;20116;-62
2021/07/28 04:31:18;;;;;;;;;;;;;;;21.94;64.16;101516.58;1936672;74;20481;-62
2021/07/28 04:33:46;;;;;;;;;;;;;;;22.10;64.02;101519.47;1936681;74;20112;-61
2021/07/28 04:36:14;;;;;;;;;;;;;;;22.35;63.72;101511.77;1936693;74;20116;-61
2021/07/28 04:38:42;;;;;;;;;;;;;;;22.53;63.37;101506.32;1936704;74;20138;-61
2021/07/28 04:41:10;;;;;;;;;;;;;;;22.68;62.53;101501.58;1936615;74;20154;-61
2021/07/28 04:43:38;;;;;;;;;;;;;;;22.74;61.04;101494.41;1936734;74;20112;-61
2021/07/28 04:46:06;;;;;;;;;;;;;;;22.82;61.35;101490.27;1936703;74;20116;-61
2021/07/28 04:48:34;;;;;;;;;;;;;;;23.02;60.90;101500.28;1938296;72;20103;-60
2021/07/28 04:51:02;;;;;;;;;;;;;;;23.12;59.96;101495.89;1940652;74;20116;-61
2021/07/28 04:53:30;;;;;;;;;;;;;;;23.27;58.89;101498.33;1940605;74;20107;-61
2021/07/28 04:55:59;;;;;;;;;;;;;;;23.35;58.84;101499.05;1940460;74;20185;-61
2021/07/28 04:58:27;;;;;;;;;;;;;;;23.49;59.01;101496.94;1940698;74;20099;-61
2021/07/28 05:00:55;;;;;;;;;;;;;;;23.81;59.30;101502.02;1940727;74;20103;-61
2021/07/28 05:03:22;;;;;;;;;;;;;;;24.09;58.92;101505.95;1940595;74;20142;-60
2021/07/28 05:05:51;;;;;;;;;;;;;;;24.35;58.89;101500.20;1940590;74;20107;-60
2021/07/28 05:08:18;;;;;;;;;;;;;;;24.57;57.56;101498.73;1940537;73;20201;-61
2021/07/28 05:10:48;;;;;;;;;;;;;;;24.70;54.85;101498.99;1940628;74;20120;-61
2021/07/28 05:13:16;;;;;;;;;;;;;;;24.65;55.94;101498.91;1940596;74;20112;-60
2021/07/28 05:15:45;;;;;;;;;;;;;;;24.84;55.83;101495.95;1940529;74;20111;-61
2021/07/28 05:18:12;;;;;;;;;;;;;;;24.98;56.13;101489.36;1940737;74;20150;-61
2021/07/28 05:20:40;;;;;;;;;;;;;;;25.21;55.79;101489.99;1940582;74;20138;-60
2021/07/28 05:23:08;;;;;;;;;;;;;;;25.31;55.17;101488.73;1940503;73;20167;-61
2021/07/28 05:25:36;;;;;;;;;;;;;;;25.42;54.12;101478.67;1940544;74;20112;-61
2021/07/28 05:28:06;;;;;;;;;;;;;;;25.47;53.47;101476.92;1940566;74;20099;-61
2021/07/28 05:30:34;;;;;;;;;;;;;;;25.47;52.68;101472.00;1940582;74;20103;-61
2021/07/28 05:33:02;;;;;;;;;;;;;;;25.58;50.79;101467.35;1940560;74;20116;-61
2021/07/28 05:35:29;;;;;;;;;;;;;;;25.47;50.80;101466.61;1940506;74;20141;-61
2021/07/28 05:37:59;;;;;;;;;;;;;;;25.60;51.28;101464.02;1940556;74;20186;-61
2021/07/28 05:40:27;;;;;;;;;;;;;;;25.78;51.59;101458.78;1940095;74;20112;-61
2021/07/28 05:42:54;;;;;;;;;;;;;;;26.05;50.86;101465.32;1940565;74;20116;-61
2021/07/28 05:45:22;;;;;;;;;;;;;;;26.22;50.43;101463.73;1940566;74;20154;-60
2021/07/28 05:47:50;;;;;;;;;;;;;;;26.30;50.70;101463.00;1940537;74;20119;-61
2021/07/28 05:50:18;;;;;;;;;;;;;;;26.55;49.64;101460.17;1940359;73;20209;-61
2021/07/28 05:52:46;;;;;;;;;;;;;;;26.67;47.52;101459.52;1940570;74;20121;-61
2021/07/28 05:55:14;;;;;;;;;;;;;;;26.58;48.04;101451.28;1940564;74;20116;-61
2021/07/28 05:57:42;;;;;;;;;;;;;;;26.67;48.06;101455.46;1940518;74;20120;-61
2021/07/28 06:00:10;;;;;;;;;;;;;;;26.67;46.86;101456.81;1940561;74;20155;-61
2021/07/28 06:02:38;;;;;;;;;;;;;;;26.85;47.92;101447.44;1940441;74;20255;-62
2021/07/28 06:05:06;;;;;;;;;;;;;;;27.27;48.72;101448.31;1940767;73;20100;-61
2021/07/28 06:07:34;;;;;;;;;;;;;;;27.60;47.96;101448.14;1940560;74;20103;-60
2021/07/28 06:10:02;;;;;;;;;;;;;;;27.88;47.52;101454.81;1940740;74;20111;-60
2021/07/28 06:12:30;;;;;;;;;;;;;;;28.04;47.10;101460.41;1940701;74;20103;-60
2021/07/28 06:14:58;;;;;;;;;;;;;;;28.27;46.09;101463.44;1940645;74;20099;-62
2021/07/28 06:17:26;;;;;;;;;;;;;;;28.49;46.22;101456.64;1940609;74;20146;-61
2021/07/28 06:19:54;;;;;;;;;;;;;;;28.66;45.82;101457.64;1940657;74;20099;-61
2021/07/28 06:22:22;;;;;;;;;;;;;;;28.93;45.70;101461.64;1940665;74;20116;-60
2021/07/28 06:24:50;;;;;;;;;;;;;;;28.93;43.77;101449.45;1940650;74;20131;-60
2021/07/28 06:27:18;;;;;;;;;;;;;;;28.92;43.93;101454.03;1940667;74;20154;-61
2021/07/28 06:29:46;;;;;;;;;;;;;;;29.13;42.86;101452.23;1940562;74;20112;-61
2021/07/28 06:32:14;;;;;;;;;;;;;;;29.23;43.57;101454.83;1940660;74;20145;-61
2021/07/28 06:34:42;;;;;;;;;;;;;;;29.19;41.43;101447.52;1940652;74;20112;-60
2021/07/28 06:37:10;;;;;;;;;;;;;;;29.31;41.67;101445.86;1940618;74;20181;-61
2021/07/28 06:39:38;;;;;;;;;;;;;;;29.36;41.49;101447.56;1940673;74;20107;-60
2021/07/28 06:42:05;;;;;;;;;;;;;;;29.51;41.85;101443.21;1940602;74;20114;-63
2021/07/28 06:44:33;;;;;;;;;;;;;;;29.60;41.53;101432.70;1940603;74;20141;-60
2021/07/28 06:47:01;;;;;;;;;;;;;;;29.81;42.00;101439.01;1940650;74;20150;-61
2021/07/28 06:49:29;;;;;;;;;;;;;;;30.22;42.70;101433.54;1940644;73;20166;-61
2021/07/28 06:51:57;;;;;;;;;;;;;;;30.57;42.30;101437.41;1940633;74;20116;-61
2021/07/28 06:54:25;;;;;;;;;;;;;;;30.87;42.58;101439.83;1940832;74;20115;-61
2021/07/28 06:56:53;;;;;;;;;;;;;;;31.20;42.24;101431.53;1940526;74;20158;-61
2021/07/28 06:59:21;;;;;;;;;;;;;;;31.49;41.67;101425.42;1940673;74;20156;-61
2021/07/28 07:01:50;;;;;;;;;;;;;;;31.68;40.51;101428.69;1940654;74;20146;-61
2021/07/28 07:04:18;;;;;;;;;;;;;;;31.77;40.49;101420.78;1940663;74;20119;-60
2021/07/28 07:06:45;;;;;;;;;;;;;;;31.90;41.05;101424.25;1940631;74;20103;-61
2021/07/28 07:09:13;;;;;;;;;;;;;;;32.13;40.90;101417.44;1940614;74;20103;-61
2021/07/28 07:11:41;;;;;;;;;;;;;;;32.31;41.09;101423.37;1940634;74;20182;-61
2021/07/28 07:14:09;;;;;;;;;;;;;;;32.49;39.42;101416.16;1940667;74;20159;-61
2021/07/28 07:16:37;;;;;;;;;;;;;;;32.40;39.09;101415.09;1940748;74;20115;-61
2021/07/28 07:19:05;;;;;;;;;;;;;;;32.50;39.76;101401.52;1940611;74;20096;-60
2021/07/28 07:21:33;;;;;;;;;;;;;;;32.67;38.95;101406.27;1940625;74;20124;-61
2021/07/28 07:24:01;;;;;;;;;;;;;;;32.64;36.66;101401.72;1940536;74;20112;-61
2021/07/28 07:26:28;;;;;;;;;;;;;;;32.34;34.83;101398.14;1940665;74;20111;-61
2021/07/28 07:28:56;;;;;;;;;;;;;;;32.22;35.70;101401.34;1940640;74;20142;-61
2021/07/28 07:31:24;;;;;;;;;;;;;;;32.11;33.70;101396.31;1940607;74;20103;-61
2021/07/28 07:33:52;;;;;;;;;;;;;;;31.80;33.91;101397.28;1940623;74;20143;-61
2021/07/28 07:36:22;;;;;;;;;;;;;;;31.84;35.25;101389.59;1940600;74;20193;-61
2021/07/28 07:38:49;;;;;;;;;;;;;;;32.01;33.93;101393.00;1940683;74;20170;-61
2021/07/28 07:41:17;;;;;;;;;;;;;;;31.98;33.76;101387.39;1940618;74;20116;-61
2021/07/28 07:43:45;;;;;;;;;;;;;;;32.20;33.60;101398.45;1940636;74;20112;-61
2021/07/28 07:46:12;;;;;;;;;;;;;;;32.30;33.90;101387.61;1940622;74;20112;-61
2021/07/28 07:48:40;;;;;;;;;;;;;;;32.42;33.57;101384.41;1940751;74;20166;-61
2021/07/28 07:51:08;;;;;;;;;;;;;;;32.39;32.34;101382.05;1940641;73;20119;-62
2021/07/28 07:53:36;;;;;;;;;;;;;;;32.29;33.20;101376.36;1940661;74;20146;-61
2021/07/28 07:56:05;;;;;;;;;;;;;;;32.56;33.70;101382.19;1940619;74;20111;-61
2021/07/28 07:58:34;;;;;;;;;;;;;;;32.87;33.87;101374.33;1940608;74;20381;-61
2021/07/28 08:01:12;;;;;;;;;;;;;;;32.97;32.90;101372.65;1940630;74;20111;-61
2021/07/28 08:03:40;;;;;;;;;;;;;;;32.89;33.37;101369.53;1940990;74;20424;-61
2021/07/28 08:06:08;;;;;;;;;;;;;;;33.14;33.47;101363.20;1940741;74;20115;-61
2021/07/28 08:08:37;;;;;;;;;;;;;;;33.28;33.05;101364.20;1940684;74;20104;-61
2021/07/28 08:11:07;;;;;;;;;;;;;;;33.31;32.37;101367.04;1940610;74;20389;-61
2021/07/28 08:13:35;;;;;;;;;;;;;;;33.05;31.97;101364.33;1939606;74;20115;-61
2021/07/28 08:16:04;;;;;;;;;;;;;;;33.02;32.95;101371.03;1940544;74;20115;-61
2021/07/28 08:18:32;;;;;;;;;;;;;;;33.30;32.69;101360.75;1939862;74;20119;-61
2021/07/28 08:21:01;;;;;;;;;;;;;;;33.46;32.97;101363.22;1940749;73;20107;-61
2021/07/28 08:23:29;;;;;;;;;;;;;;;33.60;32.86;101362.79;1940613;74;20412;-61
2021/07/28 08:25:57;;;;;;;;;;;;;;;33.83;31.64;101368.06;1940773;74;20127;-61
2021/07/28 08:28:25;;;;;;;;;;;;;;;33.79;32.23;101367.27;1940575;74;20111;-63
2021/07/28 08:30:55;;;;;;;;;;;;;;;33.93;32.17;101370.97;1940546;74;20195;-62
2021/07/28 08:33:24;;;;;;;;;;;;;;;34.07;31.22;101364.55;1940544;74;20377;-61
2021/07/28 08:35:53;;;;;;;;;;;;;;;33.93;31.28;101362.77;1940606;74;20120;-61
2021/07/28 08:38:22;;;;;;;;;;;;;;;33.89;31.30;101357.39;1939653;74;20151;-61
2021/07/28 08:40:55;;;;;;;;;;;;;;;34.02;31.67;101362.94;1940555;74;20097;-60
2021/07/28 08:43:20;;;;;;;;;;;;;;;34.31;31.53;101351.48;1940121;73;20122;-61
2021/07/28 08:45:49;;;;;;;;;;;;;;;34.44;31.40;101359.74;1940600;74;20113;-61
2021/07/28 08:48:17;;;;;;;;;;;;;;;34.71;31.82;101344.83;1940584;74;20114;-61
2021/07/28 08:50:47;;;;;;;;;;;;;;;34.90;31.30;101346.80;1939062;74;20146;-60
2021/07/28 08:53:16;;;;;;;;;;;;;;;35.11;31.46;101344.94;1936162;74;20109;-60
2021/07/28 08:55:44;;;;;;;;;;;;;;;35.05;30.26;101341.14;1936638;74;20114;-61
2021/07/28 08:58:16;;;;;;;;;;;;;;;34.66;29.62;101334.98;1936621;74;20114;-60
2021/07/28 09:00:44;;;;;;;;;;;;;;;34.52;29.07;101329.48;1936715;73;20114;-60
2021/07/28 09:03:13;;;;;;;;;;;;;;;34.20;28.78;101329.13;1936653;74;20118;-60
2021/07/28 09:05:41;;;;;;;;;;;;;;;33.84;28.59;101327.92;1936686;74;20161;-60
2021/07/28 09:08:29;;;;;;;;;;;;;;;33.76;29.82;101328.93;1936576;74;20114;-61
2021/07/28 09:10:58;;;;;;;;;;;;;;;34.01;29.56;101332.55;1936627;74;20110;-60
2021/07/28 09:13:30;;;;;;;;;;;;;;;33.87;28.58;101328.07;1936755;74;20168;-60
2021/07/28 09:16:00;;;;;;;;;;;;;;;33.74;29.34;101322.83;1936628;74;20098;-61
2021/07/28 09:18:29;;;;;;;;;;;;;;;33.96;30.00;101310.48;1936567;74;20387;-62
2021/07/28 09:20:57;;;;;;;;;;;;;;;34.31;29.71;101313.22;1936012;74;20150;-62
2021/07/28 09:23:39;;;;;;;;;;;;;;;34.46;29.63;101313.07;1936733;74;20118;-61
2021/07/28 09:26:23;;;;;;;;;;;;;;;34.57;29.25;101309.21;1936662;74;20388;-61
2021/07/28 09:28:53;;;;;;;;;;;;;;;34.55;29.27;101303.11;1895941;75;20171;-62
2021/07/28 09:31:22;;;;;;;;;;;;;;;34.58;29.45;101301.34;1919693;74;20200;-62
2021/07/28 09:33:51;;;;;;;;;;;;;;;34.70;29.58;101304.34;1936182;74;20142;-61
2021/07/28 09:36:19;;;;;;;;;;;;;;;34.97;29.74;101308.48;1935983;74;20118;-61
2021/07/28 09:38:47;;;;;;;;;;;;;;;35.14;28.69;101305.69;1936743;73;20113;-61
2021/07/28 09:41:17;;;;;;;;;;;;;;;34.98;28.69;101306.92;1936642;74;20118;-61
2021/07/28 09:43:46;;;;;;;;;;;;;;;34.86;28.87;101299.02;1936598;73;20144;-62
2021/07/28 09:46:15;;;;;;;;;;;;;;;34.80;28.75;101295.73;1936989;74;20371;-61
2021/07/28 09:48:43;;;;;;;;;;;;;;;34.74;28.83;101286.99;1935057;74;20114;-61
2021/07/28 09:51:12;;;;;;;;;;;;;;;34.80;29.02;101287.52;1936933;73;20199;-61
2021/07/28 09:53:39;;;;;;;;;;;;;;;34.86;29.05;101292.69;1936281;74;20383;-61
2021/07/28 09:56:07;;;;;;;;;;;;;;;34.76;29.05;101288.46;1936793;74;20102;-61
2021/07/28 09:58:35;;;;;;;;;;;;;;;34.80;29.29;101286.16;1936884;74;20113;-61
2021/07/28 10:01:03;;;;;;;;;;;;;;;34.76;28.76;101293.09;1936772;74;20109;-61
2021/07/28 10:03:31;;;;;;;;;;;;;;;34.40;27.87;101290.97;1936780;74;20157;-61
2021/07/28 10:05:59;;;;;;;;;;;;;;;34.15;28.32;101278.84;1936888;74;20106;-61
2021/07/28 10:08:27;;;;;;;;;;;;;;;34.04;28.93;101274.78;1936740;74;20122;-62
2021/07/28 10:10:55;;;;;;;;;;;;;;;33.93;29.12;101273.99;1936666;73;20258;-62
2021/07/28 10:13:23;;;;;;;;;;;;;;;33.92;29.32;101280.48;1936859;74;20106;-61
2021/07/28 10:15:51;;;;;;;;;;;;;;;33.90;29.62;101272.52;1936801;74;20187;-61
2021/07/28 10:18:19;;;;;;;;;;;;;;;33.94;29.36;101282.48;1936799;73;20114;-61
2021/07/28 10:20:47;;;;;;;;;;;;;;;33.88;29.58;101266.92;1936741;74;20110;-61
2021/07/28 10:23:16;;;;;;;;;;;;;;;33.86;29.68;101269.84;1936669;74;20144;-62
2021/07/28 10:25:45;;;;;;;;;;;;;;;33.92;29.89;101266.83;1936765;74;20133;-61
2021/07/28 10:28:14;;;;;;;;;;;;;;;33.89;29.83;101272.19;1936753;74;20106;-61
2021/07/28 10:30:45;;;;;;;;;;;;;;;33.91;29.96;101267.89;1936673;73;20114;-61
2021/07/28 10:33:26;;;;;;;;;;;;;;;33.69;29.43;101266.59;1936554;74;20438;-61
2021/07/28 10:35:54;;;;;;;;;;;;;;;33.39;29.60;101266.77;1936701;74;20185;-61
2021/07/28 10:38:22;;;;;;;;;;;;;;;33.11;30.06;101272.19;1936706;74;20152;-61
2021/07/28 10:40:52;;;;;;;;;;;;;;;33.07;30.25;101271.73;1936775;74;20147;-61
2021/07/28 10:43:20;;;;;;;;;;;;;;;32.96;30.37;101275.48;1936757;74;20396;-61
2021/07/28 10:45:55;;;;;;;;;;;;;;;33.02;30.68;101264.65;1936984;74;20102;-61
2021/07/28 10:48:41;;;;;;;;;;;;;;;33.04;30.69;101263.09;1936678;74;20384;-61
2021/07/28 10:51:09;;;;;;;;;;;;;;;33.08;30.63;101265.22;1936692;73;20144;-61
2021/07/28 10:53:49;;;;;;;;;;;;;;;33.16;30.70;101267.52;1936761;74;20106;-61
2021/07/28 10:56:17;;;;;;;;;;;;;;;33.20;30.87;101260.63;1936709;73;20114;-61
2021/07/28 10:58:45;;;;;;;;;;;;;;;33.20;31.03;101262.85;1936614;74;20118;-62
2021/07/28 11:01:13;;;;;;;;;;;;;;;33.07;30.83;101264.91;1936711;74;20114;-61
2021/07/28 11:03:41;;;;;;;;;;;;;;;32.85;31.00;101267.30;1936731;74;20156;-61
2021/07/28 11:06:16;;;;;;;;;;;;;;;32.67;31.10;101265.87;1936776;74;20137;-61
2021/07/28 11:08:45;;;;;;;;;;;;;;;32.58;31.32;101260.21;1936764;74;20152;-61
2021/07/28 11:11:14;;;;;;;;;;;;;;;32.45;31.24;101266.84;1936625;74;20542;-61
2021/07/28 11:13:44;;;;;;;;;;;;;;;32.22;31.55;101262.39;1936527;74;20152;-61
2021/07/28 11:16:12;;;;;;;;;;;;;;;32.11;31.79;101262.84;1936807;74;20113;-61
2021/07/28 11:18:43;;;;;;;;;;;;;;;31.94;31.80;101256.20;1936691;74;20106;-61
2021/07/28 11:21:12;;;;;;;;;;;;;;;31.81;32.03;101264.19;1935223;74;20110;-61
2021/07/28 11:23:44;;;;;;;;;;;;;;;31.68;32.24;101256.67;1936628;74;20118;-62
2021/07/28 11:26:13;;;;;;;;;;;;;;;31.54;32.06;101258.36;1936714;74;20149;-61
2021/07/28 11:28:42;;;;;;;;;;;;;;;31.41;32.39;101258.62;1936266;74;20173;-61
2021/07/28 11:34:06;;;;;;;;;;;;;;;31.25;32.76;101243.31;1830296;78;20136;-62
2021/07/28 11:36:35;;;;;;;;;;;;;;;31.21;32.61;101241.97;1861679;76;20122;-61
2021/07/28 11:39:10;;;;;;;;;;;;;;;31.20;32.80;101243.02;1828886;78;20116;-61
2021/07/28 11:41:40;;;;;;;;;;;;;;;31.08;32.77;101243.45;1861341;77;20141;-61
2021/07/28 11:44:08;;;;;;;;;;;;;;;30.96;32.44;101251.70;1828916;78;20150;-61
2021/07/28 11:46:36;;;;;;;;;;;;;;;30.85;32.49;101238.50;1861220;77;20145;-62
2021/07/28 11:49:07;;;;;;;;;;;;;;;30.68;32.85;101248.65;1828988;78;20112;-61
2021/07/28 11:51:42;;;;;;;;;;;;;;;30.55;32.97;101242.45;1861108;76;20117;-61
2021/07/28 11:54:13;;;;;;;;;;;;;;;30.51;33.07;101241.12;1861509;76;20153;-61
2021/07/28 11:56:48;;;;;;;;;;;;;;;30.42;33.20;101234.88;1861332;77;20384;-61
2021/07/28 11:59:26;;;;;;;;;;;;;;;30.40;33.67;101233.69;1861227;77;20098;-61
2021/07/28 12:01:54;;;;;;;;;;;;;;;30.44;33.73;101230.63;1828894;78;20153;-61
2021/07/28 12:04:23;;;;;;;;;;;;;;;30.49;33.48;101232.27;1861525;77;20514;-61
2021/07/28 12:06:52;;;;;;;;;;;;;;;30.53;33.55;101225.48;1828877;78;20124;-61
2021/07/28 12:09:24;;;;;;;;;;;;;;;30.65;33.51;101229.45;1861280;77;20119;-62
2021/07/28 12:11:53;;;;;;;;;;;;;;;30.71;33.21;101226.03;1828878;78;20155;-61
2021/07/28 12:14:26;;;;;;;;;;;;;;;30.68;33.23;101226.91;1861410;77;20149;-61
2021/07/28 12:16:54;;;;;;;;;;;;;;;30.72;33.60;101227.70;1828890;78;20427;-61
2021/07/28 12:19:23;;;;;;;;;;;;;;;30.76;33.26;101222.23;1861298;77;20162;-61
2021/07/28 12:21:59;;;;;;;;;;;;;;;30.74;33.24;101217.50;1828847;78;20125;-62
2021/07/28 12:24:30;;;;;;;;;;;;;;;30.75;33.41;101211.05;1861303;77;20118;-61
2021/07/28 12:27:00;;;;;;;;;;;;;;;30.81;33.57;101216.80;1828995;78;20112;-61
2021/07/28 12:29:34;;;;;;;;;;;;;;;30.80;33.53;101213.20;1864310;76;20106;-61
2021/07/28 12:32:16;;;;;;;;;;;;;;;30.79;33.55;101209.65;1829371;76;20172;-62
2021/07/28 12:34:44;;;;;;;;;;;;;;;30.76;33.09;101213.25;1889522;76;20112;-61
2021/07/28 12:37:22;;;;;;;;;;;;;;;30.65;33.44;101210.42;1856211;77;20165;-61
2021/07/28 12:39:52;;;;;;;;;;;;;;;30.68;33.55;101206.52;1889592;76;20114;-61
2021/07/28 12:42:19;;;;;;;;;;;;;;;30.69;33.20;101206.34;1858095;77;20118;-61
2021/07/28 12:44:47;;;;;;;;;;;;;;;30.65;33.28;101210.42;1889606;76;20145;-61
2021/07/28 12:47:15;;;;;;;;;;;;;;;30.60;33.08;101206.08;1889697;76;20203;-61
2021/07/28 12:49:44;;;;;;;;;;;;;;;30.54;33.21;101212.20;1889594;76;20164;-61